Jay Michael — WDD2051 — position and weather

sailwx.info

Track history (hours):
 
Tides and Currents Weather Stations Pressure Air Temp Water Temp Dewpoint Dewpoint Depression Visibility Wind Speed Wind Dir Waves Ship Positions

Jay Michael

Owner: Sterling Equipment Inc., Quincy, MA. More information available from US FCC via Universal Licensing System and Coast Guard Vessel Documentation Center.

Last reported at 2016-May-02 00:19 UTC. Time now 2016-May-03 08:43 UTC.
Position N 34°29' W 076°23'.

Length 21 m; draft 2.5 m.

Type: Tug. MMSI: 367110280.

Date/timePositionNaut miles runAvg speedWind from/ knotsBaromVisibWave heightAir tempDewpointWater temp
2016-May-02 00:19N 34°29' W 076°23'7 8.7
2016-May-01 23:31N 34°26' W 076°30'9 8.9
2016-May-01 22:33N 34°27' W 076°41'236 6.9
2016-Apr-30 12:33N 32°03' W 080°24'8 7.9
2016-Apr-30 11:33N 31°56' W 080°28'8 8.1
2016-Apr-30 10:33N 31°49' W 080°33'8 8.5
2016-Apr-30 09:33N 31°42' W 080°39'18 8.9
2016-Apr-30 07:29N 31°27' W 080°52'9 8.7
2016-Apr-30 06:26N 31°20' W 080°59'259 8.0
2016-Apr-28 22:14N 27°05' W 080°05'6 9.0
2016-Apr-28 21:34N 26°59' W 080°04'23 9.6
2016-Apr-28 19:09N 26°36' W 080°00'6 9.6
2016-Apr-28 18:33N 26°31' W 080°01'8 7.9
2016-Apr-28 17:33N 26°23' W 080°02'7 6.9
2016-Apr-28 16:33N 26°16' W 080°03'13 3.3
2016-Apr-28 12:31N 26°04' W 080°08'0 0.0
2016-Apr-28 11:33N 26°04' W 080°08'0 0.0
2016-Apr-28 10:33N 26°04' W 080°08'0 0.0
2016-Apr-28 09:33N 26°04' W 080°08'0 0.0
2016-Apr-28 08:33N 26°04' W 080°08'0 0.0
2016-Apr-28 07:33N 26°04' W 080°08'0 0.0
2016-Apr-28 06:33N 26°04' W 080°08'0 0.0
2016-Apr-28 05:33N 26°04' W 080°08'0 0.0
2016-Apr-28 04:33N 26°04' W 080°08'0 0.0
2016-Apr-28 03:33N 26°04' W 080°08'0 0.0
2016-Apr-28 02:33N 26°04' W 080°08'0 0.0
2016-Apr-28 01:33N 26°04' W 080°08'0 0.0
2016-Apr-28 00:33N 26°04' W 080°08'0 0.0
2016-Apr-27 23:33N 26°04' W 080°08'0 0.0
2016-Apr-27 22:33N 26°04' W 080°08'1 1.5
2016-Apr-27 21:33N 26°05' W 080°07'1 1.4
2016-Apr-27 20:33N 26°06' W 080°07'1 1.2
2016-Apr-27 19:33N 26°05' W 080°07'2 1.6
2016-Apr-27 18:33N 26°04' W 080°08'0 0.0
2016-Apr-27 17:22N 26°04' W 080°08'0 0.0
2016-Apr-27 16:33N 26°04' W 080°08'0 0.0
2016-Apr-27 15:33N 26°04' W 080°08'1 0.8
2016-Apr-27 14:33N 26°04' W 080°07'3 2.5
2016-Apr-27 13:33N 26°06' W 080°05'2 1.9
2016-Apr-27 12:33N 26°07' W 080°03'1 1.3
2016-Apr-27 11:33N 26°06' W 080°04'5 4.9
2016-Apr-27 10:33N 26°11' W 080°03'7 6.6
2016-Apr-27 09:33N 26°17' W 080°03'6 5.9
2016-Apr-27 08:33N 26°23' W 080°02'28 4.6
2016-Apr-27 02:33N 26°51' W 080°00'5 4.8
2016-Apr-27 01:33N 26°56' W 080°01'  
Track history (hours):
 
Tides and Currents Weather Stations Pressure Air Temp Water Temp Dewpoint Dewpoint Depression Visibility Wind Speed Wind Dir Waves Ship Positions

Jay Michael

Owner: Sterling Equipment Inc., Quincy, MA. More information available from US FCC via Universal Licensing System and Coast Guard Vessel Documentation Center.

Last reported at 2016-May-02 00:19 UTC. Time now 2016-May-03 08:43 UTC.
Position N 34°29' W 076°23'.

Length 21 m; draft 2.5 m.

Type: Tug. MMSI: 367110280.

Date/timePositionNaut miles runAvg speedWind from/ knotsBaromVisibWave heightAir tempDewpointWater temp
2016-May-02 00:19N 34°29' W 076°23'7 8.7
2016-May-01 23:31N 34°26' W 076°30'9 8.9
2016-May-01 22:33N 34°27' W 076°41'236 6.9
2016-Apr-30 12:33N 32°03' W 080°24'8 7.9
2016-Apr-30 11:33N 31°56' W 080°28'8 8.1
2016-Apr-30 10:33N 31°49' W 080°33'8 8.5
2016-Apr-30 09:33N 31°42' W 080°39'18 8.9
2016-Apr-30 07:29N 31°27' W 080°52'9 8.7
2016-Apr-30 06:26N 31°20' W 080°59'259 8.0
2016-Apr-28 22:14N 27°05' W 080°05'6 9.0
2016-Apr-28 21:34N 26°59' W 080°04'23 9.6
2016-Apr-28 19:09N 26°36' W 080°00'6 9.6
2016-Apr-28 18:33N 26°31' W 080°01'8 7.9
2016-Apr-28 17:33N 26°23' W 080°02'7 6.9
2016-Apr-28 16:33N 26°16' W 080°03'13 3.3
2016-Apr-28 12:31N 26°04' W 080°08'0 0.0
2016-Apr-28 11:33N 26°04' W 080°08'0 0.0
2016-Apr-28 10:33N 26°04' W 080°08'0 0.0
2016-Apr-28 09:33N 26°04' W 080°08'0 0.0
2016-Apr-28 08:33N 26°04' W 080°08'0 0.0
2016-Apr-28 07:33N 26°04' W 080°08'0 0.0
2016-Apr-28 06:33N 26°04' W 080°08'0 0.0
2016-Apr-28 05:33N 26°04' W 080°08'0 0.0
2016-Apr-28 04:33N 26°04' W 080°08'0 0.0
2016-Apr-28 03:33N 26°04' W 080°08'0 0.0
2016-Apr-28 02:33N 26°04' W 080°08'0 0.0
2016-Apr-28 01:33N 26°04' W 080°08'0 0.0
2016-Apr-28 00:33N 26°04' W 080°08'0 0.0
2016-Apr-27 23:33N 26°04' W 080°08'0 0.0
2016-Apr-27 22:33N 26°04' W 080°08'1 1.5
2016-Apr-27 21:33N 26°05' W 080°07'1 1.4
2016-Apr-27 20:33N 26°06' W 080°07'1 1.2
2016-Apr-27 19:33N 26°05' W 080°07'2 1.6
2016-Apr-27 18:33N 26°04' W 080°08'0 0.0
2016-Apr-27 17:22N 26°04' W 080°08'0 0.0
2016-Apr-27 16:33N 26°04' W 080°08'0 0.0
2016-Apr-27 15:33N 26°04' W 080°08'1 0.8
2016-Apr-27 14:33N 26°04' W 080°07'3 2.5
2016-Apr-27 13:33N 26°06' W 080°05'2 1.9
2016-Apr-27 12:33N 26°07' W 080°03'1 1.3
2016-Apr-27 11:33N 26°06' W 080°04'5 4.9
2016-Apr-27 10:33N 26°11' W 080°03'7 6.6
2016-Apr-27 09:33N 26°17' W 080°03'6 5.9
2016-Apr-27 08:33N 26°23' W 080°02'28 4.6
2016-Apr-27 02:33N 26°51' W 080°00'5 4.8
2016-Apr-27 01:33N 26°56' W 080°01'  

Dump ship's entire track history